createdAt,value
2022-08-30T00:01:05.378Z,100.00
2022-08-30T00:03:41.183Z,100.00
2022-08-30T00:06:10.035Z,100.00
2022-08-30T00:08:38.443Z,100.00
2022-08-30T00:11:09.973Z,100.00
2022-08-30T00:13:38.714Z,100.00
2022-08-30T00:16:07.065Z,100.00
2022-08-30T00:18:35.490Z,100.00
2022-08-30T00:21:05.052Z,100.00
2022-08-30T00:23:32.595Z,100.00
2022-08-30T00:25:59.936Z,100.00
2022-08-30T00:28:27.054Z,100.00
2022-08-30T00:30:54.230Z,100.00
2022-08-30T00:33:21.297Z,100.00
2022-08-30T00:35:48.352Z,100.00
2022-08-30T00:38:15.456Z,100.00
2022-08-30T00:40:45.021Z,100.00
2022-08-30T00:43:19.314Z,100.00
2022-08-30T00:45:47.263Z,100.00
2022-08-30T00:48:14.480Z,100.00
2022-08-30T00:50:48.444Z,100.00
2022-08-30T00:53:24.820Z,100.00
2022-08-30T00:55:54.018Z,100.00
2022-08-30T00:58:22.934Z,100.00
2022-08-30T01:00:53.370Z,100.00
2022-08-30T01:03:20.392Z,100.00
2022-08-30T01:05:49.796Z,100.00
2022-08-30T01:08:16.715Z,100.00
2022-08-30T01:10:44.652Z,100.00
2022-08-30T01:13:14.010Z,100.00
2022-08-30T01:15:42.888Z,100.00
2022-08-30T01:18:11.605Z,100.00
2022-08-30T01:21:10.289Z,100.00
2022-08-30T01:23:40.502Z,100.00
2022-08-30T01:26:08.001Z,100.00
2022-08-30T01:28:35.493Z,100.00
2022-08-30T01:31:02.626Z,100.00
2022-08-30T01:33:30.051Z,100.00
2022-08-30T01:36:02.801Z,100.00
2022-08-30T01:38:40.618Z,100.00
2022-08-30T01:41:18.585Z,100.00
2022-08-30T01:43:45.795Z,100.00
2022-08-30T01:46:15.074Z,100.00
2022-08-30T01:48:50.349Z,100.00
2022-08-30T01:51:23.023Z,100.00
2022-08-30T01:53:50.156Z,100.00
2022-08-30T01:56:17.939Z,100.00
2022-08-30T01:58:45.571Z,100.00
2022-08-30T02:01:15.209Z,100.00
2022-08-30T02:03:44.442Z,100.00
2022-08-30T02:06:15.091Z,100.00
2022-08-30T02:08:42.749Z,100.00
2022-08-30T02:11:10.980Z,100.00
2022-08-30T02:13:40.150Z,100.00
2022-08-30T02:16:09.017Z,100.00
2022-08-30T02:18:38.633Z,100.00
2022-08-30T02:21:06.984Z,100.00
2022-08-30T02:23:34.303Z,100.00
2022-08-30T02:26:01.535Z,100.00
2022-08-30T02:28:29.260Z,100.00
2022-08-30T02:30:56.203Z,100.00
2022-08-30T02:33:23.512Z,100.00
2022-08-30T02:35:50.729Z,100.00
2022-08-30T02:38:19.945Z,100.00
2022-08-30T02:40:47.126Z,100.00
2022-08-30T02:43:14.725Z,100.00
2022-08-30T02:45:41.828Z,100.00
2022-08-30T02:48:09.772Z,100.00
2022-08-30T02:50:45.934Z,100.00
2022-08-30T02:53:16.200Z,100.00
2022-08-30T02:55:44.566Z,100.00
2022-08-30T02:58:11.658Z,100.00
2022-08-30T03:00:39.782Z,100.00
2022-08-30T03:03:07.656Z,100.00
2022-08-30T03:05:34.891Z,100.00
2022-08-30T03:08:05.074Z,100.00
2022-08-30T03:10:32.292Z,100.00
2022-08-30T03:12:59.193Z,100.00
2022-08-30T03:15:27.184Z,100.00
2022-08-30T03:17:55.469Z,100.00
2022-08-30T03:20:23.532Z,100.00
2022-08-30T03:22:50.906Z,100.00
2022-08-30T03:25:18.310Z,100.00
2022-08-30T03:27:45.144Z,100.00
2022-08-30T03:30:13.114Z,100.00
2022-08-30T03:32:41.451Z,100.00
2022-08-30T03:35:10.650Z,100.00
2022-08-30T03:37:37.629Z,100.00
2022-08-30T03:40:07.620Z,100.00
2022-08-30T03:42:35.716Z,100.00
2022-08-30T03:45:04.883Z,100.00
2022-08-30T03:47:31.882Z,100.00
2022-08-30T03:49:58.784Z,100.00
2022-08-30T03:52:27.292Z,100.00
2022-08-30T03:54:54.319Z,100.00
2022-08-30T03:57:24.493Z,100.00
2022-08-30T03:59:52.089Z,100.00
2022-08-30T04:02:19.877Z,100.00
2022-08-30T04:04:47.033Z,100.00
2022-08-30T04:07:13.838Z,100.00
2022-08-30T04:09:41.915Z,100.00
2022-08-30T04:12:09.402Z,100.00
2022-08-30T04:14:36.295Z,100.00
2022-08-30T04:17:03.623Z,100.00
2022-08-30T04:19:30.440Z,100.00
2022-08-30T04:21:57.570Z,100.00
2022-08-30T04:24:25.557Z,100.00
2022-08-30T04:26:52.642Z,100.00
2022-08-30T04:29:19.454Z,100.00
2022-08-30T04:31:46.863Z,100.00
2022-08-30T04:34:15.128Z,100.00
2022-08-30T04:36:42.403Z,100.00
2022-08-30T04:39:17.333Z,100.00
2022-08-30T04:41:44.197Z,100.00
2022-08-30T04:44:14.219Z,100.00
2022-08-30T04:46:47.579Z,100.00
2022-08-30T04:49:14.457Z,100.00
2022-08-30T04:51:41.404Z,100.00
2022-08-30T04:54:08.552Z,100.00
2022-08-30T04:56:35.722Z,100.00
2022-08-30T04:59:03.602Z,100.00
2022-08-30T05:01:35.271Z,100.00
2022-08-30T05:04:12.077Z,100.00
2022-08-30T05:06:39.226Z,100.00
2022-08-30T05:09:06.244Z,96.41
2022-08-30T05:11:33.258Z,94.71
2022-08-30T05:14:00.643Z,92.47
2022-08-30T05:16:27.815Z,92.43
2022-08-30T05:18:54.953Z,90.38
2022-08-30T05:21:25.710Z,87.74
2022-08-30T05:23:58.533Z,84.84
2022-08-30T05:26:29.287Z,83.40
2022-08-30T05:28:56.379Z,82.99
2022-08-30T05:31:26.418Z,82.26
2022-08-30T05:33:55.326Z,79.67
2022-08-30T05:36:24.612Z,79.19
2022-08-30T05:38:51.646Z,79.25
2022-08-30T05:41:21.036Z,79.04
2022-08-30T05:43:48.660Z,75.92
2022-08-30T05:46:19.908Z,72.93
2022-08-30T05:48:47.743Z,69.25
2022-08-30T05:51:18.653Z,67.06
2022-08-30T05:53:47.085Z,62.27
2022-08-30T05:56:17.361Z,60.79
2022-08-30T05:58:45.142Z,60.81
2022-08-30T06:01:34.419Z,62.74
2022-08-30T06:04:04.293Z,61.06
2022-08-30T06:06:33.013Z,61.05
2022-08-30T06:08:59.897Z,60.00
2022-08-30T06:11:27.967Z,59.65
2022-08-30T06:13:55.894Z,56.63
2022-08-30T06:16:26.029Z,56.34
2022-08-30T06:18:55.084Z,56.92
2022-08-30T06:21:28.761Z,54.03
2022-08-30T06:23:57.424Z,51.38
2022-08-30T06:26:25.700Z,50.62
2022-08-30T06:28:53.055Z,50.38
2022-08-30T06:31:22.247Z,48.57
2022-08-30T06:33:50.177Z,47.50
2022-08-30T06:36:20.876Z,46.43
2022-08-30T06:38:50.895Z,44.62
2022-08-30T06:41:22.374Z,43.48
2022-08-30T06:43:50.577Z,43.52
2022-08-30T06:46:21.060Z,41.69
2022-08-30T06:48:48.683Z,40.77
2022-08-30T06:51:20.897Z,39.15
2022-08-30T06:53:49.723Z,40.12
2022-08-30T06:56:17.625Z,39.55
2022-08-30T06:58:45.932Z,38.58
2022-08-30T07:01:16.166Z,37.75
2022-08-30T07:03:43.634Z,36.48
2022-08-30T07:06:11.220Z,34.77
2022-08-30T07:08:38.758Z,33.46
2022-08-30T07:11:07.694Z,32.17
2022-08-30T07:13:36.049Z,30.70
2022-08-30T07:16:10.731Z,29.79
2022-08-30T07:18:54.777Z,28.50
2022-08-30T07:21:26.555Z,26.81
2022-08-30T07:23:55.880Z,27.13
2022-08-30T07:26:35.322Z,26.19
2022-08-30T07:29:04.184Z,25.19
2022-08-30T07:31:31.214Z,25.97
2022-08-30T07:33:58.131Z,25.78
2022-08-30T07:36:25.690Z,25.91
2022-08-30T07:38:54.621Z,24.83
2022-08-30T07:41:32.735Z,24.85
2022-08-30T07:44:00.892Z,22.70
2022-08-30T07:46:28.297Z,24.08
2022-08-30T07:48:56.088Z,25.16
2022-08-30T07:51:26.633Z,25.79
2022-08-30T07:53:54.778Z,27.14
2022-08-30T07:56:22.837Z,28.15
2022-08-30T07:58:52.331Z,29.43
2022-08-30T08:01:21.333Z,29.91
2022-08-30T08:03:50.418Z,31.28
2022-08-30T08:06:20.448Z,31.75
2022-08-30T08:08:47.713Z,33.71
2022-08-30T08:11:29.435Z,34.09
2022-08-30T08:14:01.124Z,34.20
2022-08-30T08:16:30.659Z,35.57
2022-08-30T08:18:58.009Z,36.19
2022-08-30T08:21:26.132Z,37.38
2022-08-30T08:23:53.149Z,36.84
2022-08-30T08:26:21.208Z,36.83
2022-08-30T08:28:48.400Z,38.93
2022-08-30T08:34:06.382Z,37.39
2022-08-30T08:36:35.609Z,36.45
2022-08-30T08:39:05.118Z,35.26
2022-08-30T08:41:53.338Z,30.56
2022-08-30T08:44:28.443Z,32.27
2022-08-30T08:47:13.772Z,32.72
2022-08-30T08:49:44.417Z,31.13
2022-08-30T08:52:39.976Z,31.49
2022-08-30T08:55:13.645Z,31.47
2022-08-30T08:57:41.261Z,30.68
2022-08-30T09:00:11.437Z,30.47
2022-08-30T09:02:58.568Z,30.40
2022-08-30T09:05:29.736Z,31.29
2022-08-30T09:08:01.569Z,32.01
2022-08-30T09:10:49.253Z,32.62
2022-08-30T09:13:19.044Z,34.27
2022-08-30T09:15:48.967Z,34.94
2022-08-30T09:18:20.034Z,36.06
2022-08-30T09:20:49.828Z,35.47
2022-08-30T09:23:17.369Z,33.64
2022-08-30T09:25:50.048Z,32.72
2022-08-30T09:28:23.137Z,30.43
2022-08-30T09:31:17.032Z,29.27
2022-08-30T09:34:01.868Z,28.54
2022-08-30T09:36:34.120Z,28.58
2022-08-30T09:39:04.252Z,29.29
2022-08-30T09:41:40.151Z,29.98
2022-08-30T09:44:25.366Z,29.55
2022-08-30T09:47:01.283Z,28.39
2022-08-30T09:49:43.225Z,26.16
2022-08-30T09:52:33.516Z,24.82
2022-08-30T09:55:21.279Z,25.21
2022-08-30T09:58:03.922Z,26.35
2022-08-30T10:00:39.046Z,27.70
2022-08-30T10:03:36.217Z,29.42
2022-08-30T10:06:24.860Z,30.60
2022-08-30T10:09:03.741Z,31.44
2022-08-30T10:11:49.173Z,32.44
2022-08-30T10:15:01.126Z,33.17
2022-08-30T10:17:59.938Z,33.86
2022-08-30T10:20:32.565Z,32.34
2022-08-30T10:23:25.170Z,32.26
2022-08-30T10:26:05.416Z,32.61
2022-08-30T10:28:43.697Z,33.86
2022-08-30T10:31:37.652Z,34.27
2022-08-30T10:34:27.224Z,33.49
2022-08-30T10:37:03.148Z,31.17
2022-08-30T10:39:37.267Z,29.23
2022-08-30T10:42:39.344Z,26.58
2022-08-30T10:45:15.210Z,27.21
2022-08-30T10:47:53.804Z,25.55
2022-08-30T10:50:28.616Z,25.79
2022-08-30T10:53:07.590Z,26.87
2022-08-30T10:55:49.870Z,28.35
2022-08-30T10:58:18.722Z,29.28
2022-08-30T11:01:00.636Z,30.65
2022-08-30T11:03:52.411Z,31.29
2022-08-30T11:06:27.171Z,32.67
2022-08-30T11:09:07.325Z,32.70
2022-08-30T11:11:56.259Z,32.72
2022-08-30T11:14:25.552Z,33.10
2022-08-30T11:16:56.742Z,33.34
2022-08-30T11:19:23.533Z,34.52
2022-08-30T11:22:08.486Z,34.23
2022-08-30T11:25:10.195Z,34.79
2022-08-30T11:27:52.940Z,35.05
2022-08-30T11:30:26.454Z,34.01
2022-08-30T11:33:25.985Z,31.71
2022-08-30T11:35:53.818Z,31.92
2022-08-30T11:38:26.706Z,31.88
2022-08-30T11:40:56.704Z,33.74
2022-08-30T11:43:36.658Z,32.96
2022-08-30T11:46:37.571Z,29.77
2022-08-30T11:49:13.958Z,29.89
2022-08-30T11:52:26.425Z,28.27
2022-08-30T11:55:02.898Z,27.28
2022-08-30T11:57:42.767Z,26.72
2022-08-30T12:00:25.161Z,27.08
2022-08-30T12:03:02.948Z,27.30
2022-08-30T12:05:40.051Z,27.20
2022-08-30T12:08:28.022Z,26.39
2022-08-30T12:11:03.446Z,26.67
2022-08-30T12:13:40.121Z,26.48
2022-08-30T12:16:14.923Z,27.12
2022-08-30T12:18:49.363Z,26.98
2022-08-30T12:21:22.659Z,26.46
2022-08-30T12:24:08.311Z,25.07
2022-08-30T12:26:41.157Z,25.63
2022-08-30T12:29:11.779Z,25.04
2022-08-30T12:31:46.638Z,24.59
2022-08-30T12:34:24.807Z,24.13
2022-08-30T12:36:58.067Z,23.87
2022-08-30T12:39:29.934Z,24.60
2022-08-30T12:42:12.408Z,24.91
2022-08-30T12:44:45.435Z,26.71
2022-08-30T12:47:18.167Z,27.49
2022-08-30T12:49:46.450Z,28.20
2022-08-30T12:52:31.411Z,30.62
2022-08-30T12:55:21.797Z,32.94
2022-08-30T12:58:10.177Z,33.95
2022-08-30T13:00:39.909Z,33.73
2022-08-30T13:03:32.973Z,34.47
2022-08-30T13:06:00.203Z,35.01
2022-08-30T13:08:38.251Z,35.56
2022-08-30T13:11:10.830Z,35.54
2022-08-30T13:13:44.449Z,36.23
2022-08-30T13:16:36.273Z,37.07
2022-08-30T13:19:25.377Z,36.46
2022-08-30T13:21:55.143Z,35.74
2022-08-30T13:24:25.517Z,34.83
2022-08-30T13:26:54.810Z,35.14
2022-08-30T13:29:26.518Z,34.64
2022-08-30T13:31:54.609Z,35.10
2022-08-30T13:34:22.872Z,36.05
2022-08-30T13:36:54.403Z,34.77
2022-08-30T13:39:22.007Z,35.24
2022-08-30T13:41:49.917Z,34.25
2022-08-30T13:44:18.665Z,35.77
2022-08-30T13:46:53.847Z,35.37
2022-08-30T13:49:45.782Z,35.31
2022-08-30T13:52:20.803Z,36.14
2022-08-30T13:54:57.066Z,35.78
2022-08-30T14:00:19.411Z,35.20
2022-08-30T14:02:54.701Z,34.25
2022-08-30T14:05:47.495Z,35.29
2022-08-30T14:11:01.779Z,35.16
2022-08-30T14:13:29.808Z,34.55
2022-08-30T14:18:46.900Z,34.90
2022-08-30T14:21:14.370Z,33.90
2022-08-30T14:23:41.168Z,34.35
2022-08-30T14:26:17.271Z,35.01
2022-08-30T14:28:44.982Z,35.87
2022-08-30T14:31:13.528Z,36.64
2022-08-30T14:33:40.478Z,37.76
2022-08-30T14:36:12.932Z,37.29
2022-08-30T14:38:43.985Z,37.66
2022-08-30T14:41:11.857Z,37.95
2022-08-30T14:43:42.532Z,36.62
2022-08-30T14:46:10.737Z,37.01
2022-08-30T14:48:38.547Z,37.57
2022-08-30T14:51:17.904Z,37.41
2022-08-30T14:53:46.536Z,37.51
2022-08-30T14:56:16.342Z,38.31
2022-08-30T14:58:43.392Z,38.03
2022-08-30T15:01:12.317Z,38.64
2022-08-30T15:03:41.272Z,38.64
2022-08-30T15:06:09.348Z,38.82
2022-08-30T15:08:38.406Z,38.99
2022-08-30T15:11:15.753Z,39.16
2022-08-30T15:13:45.947Z,39.65
2022-08-30T15:16:16.204Z,39.29
2022-08-30T15:18:44.019Z,39.73
2022-08-30T15:21:11.121Z,40.03
2022-08-30T15:23:39.187Z,40.49
2022-08-30T15:26:09.430Z,40.99
2022-08-30T15:28:36.899Z,41.26
2022-08-30T15:31:08.647Z,41.71
2022-08-30T15:33:37.639Z,41.95
2022-08-30T15:36:06.816Z,42.07
2022-08-30T15:38:34.921Z,42.39
2022-08-30T15:41:06.636Z,42.13
2022-08-30T15:43:34.781Z,42.43
2022-08-30T15:46:22.877Z,42.40
2022-08-30T15:48:52.213Z,42.85
2022-08-30T15:51:19.267Z,42.92
2022-08-30T15:53:46.576Z,42.69
2022-08-30T15:56:14.753Z,43.52
2022-08-30T15:58:42.962Z,44.26
2022-08-30T16:01:11.693Z,43.89
2022-08-30T16:03:41.631Z,44.39
2022-08-30T16:06:14.354Z,45.04
2022-08-30T16:08:42.011Z,45.31
2022-08-30T16:11:10.436Z,45.41
2022-08-30T16:13:37.418Z,45.66
2022-08-30T16:16:06.873Z,46.29
2022-08-30T16:18:35.246Z,46.68
2022-08-30T16:21:09.249Z,46.85
2022-08-30T16:23:38.045Z,47.61
2022-08-30T16:26:05.383Z,48.36
2022-08-30T16:28:32.496Z,48.96
2022-08-30T16:31:00.388Z,49.47
2022-08-30T16:33:29.895Z,50.33
2022-08-30T16:35:57.411Z,51.07
2022-08-30T16:38:26.619Z,51.71
2022-08-30T16:40:53.938Z,52.06
2022-08-30T16:43:23.909Z,52.85
2022-08-30T16:45:51.076Z,53.65
2022-08-30T16:48:18.007Z,54.07
2022-08-30T16:50:45.960Z,54.89
2022-08-30T16:53:13.442Z,54.38
2022-08-30T16:55:41.725Z,54.46
2022-08-30T16:58:11.759Z,54.36
2022-08-30T17:00:40.763Z,54.45
2022-08-30T17:03:15.628Z,54.67
2022-08-30T17:05:43.385Z,54.76
2022-08-30T17:08:11.815Z,55.63
2022-08-30T17:10:43.642Z,56.57
2022-08-30T17:13:14.367Z,57.05
2022-08-30T17:15:41.218Z,57.20
2022-08-30T17:18:08.543Z,57.35
2022-08-30T17:20:35.614Z,57.89
2022-08-30T17:23:02.553Z,59.01
2022-08-30T17:25:33.814Z,58.78
2022-08-30T17:28:01.780Z,59.24
2022-08-30T17:30:28.867Z,59.42
2022-08-30T17:32:55.768Z,59.84
2022-08-30T17:35:24.161Z,59.73
2022-08-30T17:37:52.565Z,60.20
2022-08-30T17:40:19.952Z,60.57
2022-08-30T17:42:48.200Z,61.50
2022-08-30T17:45:17.203Z,61.79
2022-08-30T17:47:45.109Z,62.04
2022-08-30T17:50:13.815Z,62.28
2022-08-30T17:52:41.165Z,62.76
2022-08-30T17:55:09.246Z,63.35
2022-08-30T17:57:36.916Z,64.66
2022-08-30T18:00:07.865Z,66.56
2022-08-30T18:02:34.925Z,66.79
2022-08-30T18:05:04.890Z,67.82
2022-08-30T18:07:31.739Z,69.16
2022-08-30T18:09:59.438Z,69.85
2022-08-30T18:12:27.007Z,70.47
2022-08-30T18:14:54.032Z,71.61
2022-08-30T18:17:21.414Z,73.46
2022-08-30T18:19:49.136Z,75.17
2022-08-30T18:22:16.619Z,77.10
2022-08-30T18:24:45.066Z,77.49
2022-08-30T18:27:12.680Z,78.54
2022-08-30T18:29:40.476Z,79.07
2022-08-30T18:32:09.187Z,79.88
2022-08-30T18:34:36.585Z,80.44
2022-08-30T18:37:03.539Z,81.03
2022-08-30T18:39:34.548Z,80.83
2022-08-30T18:42:04.339Z,81.50
2022-08-30T18:44:33.107Z,81.01
2022-08-30T18:47:01.405Z,81.93
2022-08-30T18:49:32.270Z,85.05
2022-08-30T18:52:01.246Z,89.50
2022-08-30T18:54:29.086Z,89.08
2022-08-30T18:56:56.070Z,89.68
2022-08-30T18:59:22.897Z,90.96
2022-08-30T19:02:02.750Z,90.23
2022-08-30T19:04:35.223Z,91.30
2022-08-30T19:07:05.362Z,93.20
2022-08-30T19:09:32.794Z,94.52
2022-08-30T19:11:59.644Z,94.84
2022-08-30T19:14:28.078Z,94.59
2022-08-30T19:16:56.384Z,94.89
2022-08-30T19:19:23.687Z,96.41
2022-08-30T19:21:51.780Z,98.79
2022-08-30T19:24:20.239Z,100.00
2022-08-30T19:26:48.202Z,100.00
2022-08-30T19:29:15.544Z,100.00
2022-08-30T19:31:43.841Z,100.00
2022-08-30T19:34:11.382Z,100.00
2022-08-30T19:36:39.153Z,100.00
2022-08-30T19:39:06.943Z,100.00
2022-08-30T19:41:33.933Z,100.00
2022-08-30T19:44:03.116Z,100.00
2022-08-30T19:46:31.182Z,100.00
2022-08-30T19:49:01.175Z,100.00
2022-08-30T19:51:28.404Z,100.00
2022-08-30T19:53:56.436Z,100.00
2022-08-30T19:56:26.283Z,100.00
2022-08-30T19:58:53.514Z,100.00
2022-08-30T20:01:32.690Z,100.00
2022-08-30T20:04:02.155Z,100.00
2022-08-30T20:06:32.504Z,100.00
2022-08-30T20:09:00.463Z,100.00
2022-08-30T20:11:28.494Z,100.00
2022-08-30T20:13:55.443Z,100.00
2022-08-30T20:16:33.167Z,100.00
2022-08-30T20:19:06.154Z,100.00
2022-08-30T20:21:33.333Z,100.00
2022-08-30T20:24:00.935Z,100.00
2022-08-30T20:26:33.470Z,100.00
2022-08-30T20:29:02.096Z,100.00
2022-08-30T20:31:29.436Z,100.00
2022-08-30T20:33:56.365Z,100.00
2022-08-30T20:36:23.283Z,100.00
2022-08-30T20:38:50.334Z,100.00
2022-08-30T20:41:19.076Z,100.00
2022-08-30T20:43:47.349Z,100.00
2022-08-30T20:46:17.320Z,100.00
2022-08-30T20:48:45.584Z,100.00
2022-08-30T20:51:15.730Z,100.00
2022-08-30T20:53:43.775Z,100.00
2022-08-30T20:56:15.504Z,100.00
2022-08-30T20:58:42.609Z,100.00
2022-08-30T21:01:11.915Z,100.00
2022-08-30T21:03:40.941Z,100.00
2022-08-30T21:06:08.031Z,100.00
2022-08-30T21:08:35.215Z,100.00
2022-08-30T21:11:02.123Z,100.00
2022-08-30T21:13:29.293Z,100.00
2022-08-30T21:16:00.661Z,100.00
2022-08-30T21:18:33.032Z,100.00
2022-08-30T21:21:21.360Z,100.00
2022-08-30T21:23:49.530Z,100.00
2022-08-30T21:26:17.484Z,100.00
2022-08-30T21:28:47.922Z,100.00
2022-08-30T21:31:17.931Z,100.00
2022-08-30T21:33:46.734Z,100.00
2022-08-30T21:36:32.395Z,100.00
2022-08-30T21:39:00.719Z,100.00
2022-08-30T21:41:29.587Z,100.00
2022-08-30T21:43:58.116Z,100.00
2022-08-30T21:46:26.274Z,100.00
2022-08-30T21:48:54.233Z,100.00
2022-08-30T21:51:21.490Z,100.00
2022-08-30T21:53:48.904Z,100.00
2022-08-30T21:56:21.732Z,100.00
2022-08-30T21:58:49.846Z,100.00
2022-08-30T22:01:25.443Z,100.00
2022-08-30T22:03:54.871Z,100.00
2022-08-30T22:06:25.239Z,100.00
2022-08-30T22:09:01.211Z,100.00
2022-08-30T22:11:31.142Z,100.00
2022-08-30T22:13:58.265Z,100.00
2022-08-30T22:16:25.975Z,100.00
2022-08-30T22:18:53.093Z,100.00
2022-08-30T22:21:24.064Z,100.00
2022-08-30T22:23:51.484Z,100.00
2022-08-30T22:26:20.251Z,100.00
2022-08-30T22:28:47.929Z,100.00
2022-08-30T22:31:16.234Z,100.00
2022-08-30T22:33:44.789Z,100.00
2022-08-30T22:36:18.223Z,100.00
2022-08-30T22:38:45.243Z,100.00
2022-08-30T22:41:15.263Z,100.00
2022-08-30T22:43:42.704Z,100.00
2022-08-30T22:46:11.603Z,100.00
2022-08-30T22:48:43.362Z,100.00
2022-08-30T22:51:11.294Z,100.00
2022-08-30T22:53:38.475Z,100.00
2022-08-30T22:56:17.927Z,100.00
2022-08-30T22:58:45.435Z,100.00
2022-08-30T23:01:19.866Z,100.00
2022-08-30T23:03:46.882Z,100.00
2022-08-30T23:06:14.279Z,100.00
2022-08-30T23:08:41.147Z,100.00
2022-08-30T23:11:08.030Z,100.00
2022-08-30T23:13:35.358Z,100.00
2022-08-30T23:16:05.262Z,100.00
2022-08-30T23:18:33.080Z,100.00
2022-08-30T23:21:12.808Z,100.00
2022-08-30T23:23:58.632Z,100.00
2022-08-30T23:26:44.779Z,100.00
2022-08-30T23:29:30.366Z,100.00
2022-08-30T23:32:16.257Z,100.00
2022-08-30T23:35:02.263Z,100.00
2022-08-30T23:37:49.332Z,100.00
2022-08-30T23:40:40.758Z,100.00
2022-08-30T23:43:27.709Z,100.00
2022-08-30T23:46:19.050Z,100.00
2022-08-30T23:49:06.614Z,100.00
2022-08-30T23:51:52.365Z,100.00
2022-08-30T23:54:38.065Z,100.00
2022-08-30T23:57:24.229Z,100.00
